createdAt,value
2023-02-02T00:00:21.093Z,0
2023-02-02T00:01:35.429Z,0
2023-02-02T00:02:49.693Z,0
2023-02-02T00:04:03.987Z,0
2023-02-02T00:05:18.388Z,0
2023-02-02T00:06:32.721Z,0
2023-02-02T00:07:46.989Z,0
2023-02-02T00:10:15.674Z,0
2023-02-02T00:11:30.003Z,0
2023-02-02T00:12:44.287Z,0
2023-02-02T00:13:58.562Z,0
2023-02-02T00:15:12.973Z,0
2023-02-02T00:17:41.575Z,0
2023-02-02T00:18:55.915Z,0
2023-02-02T00:20:10.319Z,0
2023-02-02T00:21:24.667Z,0
2023-02-02T00:22:38.010Z,0
2023-02-02T00:23:52.292Z,0
2023-02-02T00:25:06.706Z,0
2023-02-02T00:26:21.032Z,0
2023-02-02T00:27:35.308Z,0
2023-02-02T00:28:49.590Z,0
2023-02-02T00:30:04.003Z,0
2023-02-02T00:31:18.311Z,0
2023-02-02T00:32:32.605Z,0
2023-02-02T00:33:46.881Z,0
2023-02-02T00:35:01.282Z,0
2023-02-02T00:36:15.621Z,0
2023-02-02T00:37:29.902Z,0
2023-02-02T00:38:44.166Z,0
2023-02-02T00:39:58.581Z,0
2023-02-02T00:41:12.899Z,0
2023-02-02T00:42:27.192Z,0
2023-02-02T00:43:41.461Z,0
2023-02-02T00:44:55.870Z,0
2023-02-02T00:46:10.199Z,0
2023-02-02T00:47:24.485Z,0
2023-02-02T00:48:38.750Z,0
2023-02-02T00:49:53.173Z,0
2023-02-02T00:51:07.498Z,0
2023-02-02T00:52:21.763Z,0
2023-02-02T00:53:36.000Z,0
2023-02-02T00:54:50.510Z,0
2023-02-02T00:56:04.862Z,0
2023-02-02T00:57:18.210Z,0
2023-02-02T00:58:32.479Z,0
2023-02-02T00:59:46.894Z,0
2023-02-02T01:01:01.227Z,0
2023-02-02T01:02:15.507Z,0
2023-02-02T01:03:29.782Z,0
2023-02-02T01:04:44.178Z,0
2023-02-02T01:05:58.501Z,0
2023-02-02T01:07:12.797Z,0
2023-02-02T01:08:27.072Z,0
2023-02-02T01:09:41.480Z,0
2023-02-02T01:10:55.806Z,0
2023-02-02T01:12:10.080Z,0
2023-02-02T01:13:24.361Z,0
2023-02-02T01:14:38.781Z,0
2023-02-02T01:15:53.098Z,0
2023-02-02T01:17:07.377Z,0
2023-02-02T01:18:21.667Z,0
2023-02-02T01:19:36.068Z,0
2023-02-02T01:20:50.396Z,0
2023-02-02T01:22:04.663Z,0
2023-02-02T01:23:18.949Z,0
2023-02-02T01:24:33.351Z,0
2023-02-02T01:25:47.690Z,0
2023-02-02T01:27:01.969Z,0
2023-02-02T01:28:16.302Z,0
2023-02-02T01:29:30.710Z,0
2023-02-02T01:30:45.045Z,0
2023-02-02T01:31:58.389Z,0
2023-02-02T01:33:12.683Z,0
2023-02-02T01:34:27.076Z,0
2023-02-02T01:35:41.400Z,0
2023-02-02T01:36:55.681Z,0
2023-02-02T01:38:09.978Z,0
2023-02-02T01:39:24.372Z,0
2023-02-02T01:40:38.699Z,0
2023-02-02T01:41:52.973Z,0
2023-02-02T01:43:07.268Z,0
2023-02-02T01:44:21.676Z,0
2023-02-02T01:45:35.990Z,0
2023-02-02T01:46:50.285Z,0
2023-02-02T01:48:04.555Z,0
2023-02-02T01:49:18.955Z,0
2023-02-02T01:50:33.285Z,0
2023-02-02T01:51:47.578Z,0
2023-02-02T01:53:01.848Z,0
2023-02-02T01:54:16.261Z,0
2023-02-02T01:55:30.587Z,0
2023-02-02T01:56:44.864Z,0
2023-02-02T01:57:59.144Z,0
2023-02-02T01:59:13.557Z,0
2023-02-02T02:00:27.866Z,0
2023-02-02T02:01:42.153Z,0
2023-02-02T02:02:56.489Z,0
2023-02-02T02:04:10.893Z,0
2023-02-02T02:06:39.575Z,0
2023-02-02T02:07:52.916Z,0
2023-02-02T02:09:07.337Z,0
2023-02-02T02:10:21.647Z,0
2023-02-02T02:11:35.945Z,0
2023-02-02T02:14:04.632Z,0
2023-02-02T02:15:18.958Z,0
2023-02-02T02:16:33.234Z,0
2023-02-02T02:17:47.506Z,0
2023-02-02T02:19:01.910Z,0
2023-02-02T02:20:16.242Z,0
2023-02-02T02:21:30.529Z,0
2023-02-02T02:22:44.809Z,0
2023-02-02T02:23:59.211Z,0
2023-02-02T02:25:13.531Z,0
2023-02-02T02:26:27.821Z,0
2023-02-02T02:27:42.105Z,0
2023-02-02T02:28:56.499Z,0
2023-02-02T02:30:10.820Z,0
2023-02-02T02:31:25.113Z,0
2023-02-02T02:32:39.338Z,1
2023-02-02T02:33:53.638Z,1
2023-02-02T02:35:07.872Z,1
2023-02-02T02:36:22.109Z,1
2023-02-02T02:37:36.322Z,1
2023-02-02T02:38:50.625Z,1
2023-02-02T02:40:04.918Z,1
2023-02-02T02:41:19.198Z,1
2023-02-02T02:42:32.581Z,0
2023-02-02T02:43:45.996Z,0
2023-02-02T02:45:00.325Z,0
2023-02-02T02:46:13.745Z,0
2023-02-02T02:47:27.118Z,0
2023-02-02T02:48:41.451Z,0
2023-02-02T02:49:54.806Z,0
2023-02-02T02:51:09.087Z,0
2023-02-02T02:52:23.506Z,0
2023-02-02T02:53:37.824Z,0
2023-02-02T02:54:52.102Z,0
2023-02-02T02:56:06.374Z,0
2023-02-02T02:57:20.800Z,0
2023-02-02T02:58:35.113Z,0
2023-02-02T02:59:49.404Z,0
2023-02-02T03:01:03.676Z,0
2023-02-02T03:02:18.086Z,0
2023-02-02T03:03:32.398Z,0
2023-02-02T03:04:46.695Z,0
2023-02-02T03:06:00.976Z,0
2023-02-02T03:07:15.386Z,0
2023-02-02T03:08:29.690Z,0
2023-02-02T03:09:43.972Z,0
2023-02-02T03:10:58.270Z,0
2023-02-02T03:12:12.626Z,1
2023-02-02T03:13:26.920Z,0
2023-02-02T03:14:41.147Z,1
2023-02-02T03:15:55.380Z,1
2023-02-02T03:17:09.596Z,1
2023-02-02T03:18:23.913Z,1
2023-02-02T03:19:38.151Z,1
2023-02-02T03:20:52.429Z,1
2023-02-02T03:22:05.738Z,1
2023-02-02T03:24:34.407Z,0
2023-02-02T03:25:48.689Z,0
2023-02-02T03:27:02.975Z,0
2023-02-02T03:28:17.373Z,0
2023-02-02T03:29:31.709Z,0
2023-02-02T03:30:45.986Z,0
2023-02-02T03:33:14.672Z,0
2023-02-02T03:34:29.002Z,0
2023-02-02T03:36:57.580Z,0
2023-02-02T03:38:11.989Z,0
2023-02-02T03:39:26.316Z,0
2023-02-02T03:40:40.603Z,0
2023-02-02T03:41:54.872Z,0
2023-02-02T03:43:09.290Z,0
2023-02-02T03:44:23.606Z,0
2023-02-02T03:45:37.888Z,0
2023-02-02T03:46:52.163Z,0
2023-02-02T03:48:06.568Z,0
2023-02-02T03:49:20.891Z,0
2023-02-02T03:50:35.176Z,0
2023-02-02T03:51:49.462Z,0
2023-02-02T03:53:03.925Z,0
2023-02-02T03:54:18.267Z,0
2023-02-02T03:55:31.625Z,0
2023-02-02T03:58:00.305Z,0
2023-02-02T03:59:14.623Z,0
2023-02-02T04:00:28.919Z,0
2023-02-02T04:01:43.197Z,0
2023-02-02T04:02:57.602Z,0
2023-02-02T04:04:11.929Z,0
2023-02-02T04:05:26.214Z,0
2023-02-02T04:06:40.491Z,0
2023-02-02T04:07:54.893Z,0
2023-02-02T04:09:09.224Z,0
2023-02-02T04:10:23.504Z,0
2023-02-02T04:11:37.773Z,0
2023-02-02T04:12:52.192Z,0
2023-02-02T04:14:06.511Z,0
2023-02-02T04:15:20.787Z,0
2023-02-02T04:16:35.080Z,0
2023-02-02T04:17:49.471Z,0
2023-02-02T04:19:03.798Z,0
2023-02-02T04:20:18.084Z,0
2023-02-02T04:21:32.356Z,0
2023-02-02T04:22:46.782Z,0
2023-02-02T04:24:01.075Z,0
2023-02-02T04:26:29.696Z,0
2023-02-02T04:27:44.107Z,0
2023-02-02T04:30:12.774Z,0
2023-02-02T04:31:26.118Z,0
2023-02-02T04:32:40.477Z,1
2023-02-02T04:33:54.720Z,1
2023-02-02T04:35:09.003Z,0
2023-02-02T04:36:23.296Z,0
2023-02-02T04:38:52.022Z,0
2023-02-02T04:40:06.306Z,0
2023-02-02T04:41:20.574Z,0
2023-02-02T04:42:34.985Z,0
2023-02-02T04:43:49.265Z,1
2023-02-02T04:45:03.502Z,1
2023-02-02T04:46:17.721Z,1
2023-02-02T04:47:31.995Z,0
2023-02-02T04:48:46.360Z,1
2023-02-02T04:50:00.680Z,0
2023-02-02T04:51:14.911Z,1
2023-02-02T04:53:43.360Z,1
2023-02-02T04:54:57.666Z,1
2023-02-02T04:56:11.895Z,1
2023-02-02T04:57:26.142Z,1
2023-02-02T04:58:40.381Z,1
2023-02-02T05:01:08.914Z,1
2023-02-02T05:02:23.210Z,1
2023-02-02T05:03:36.554Z,1
2023-02-02T05:04:50.830Z,1
2023-02-02T05:06:05.188Z,0
2023-02-02T05:07:19.467Z,1
2023-02-02T05:08:33.799Z,0
2023-02-02T05:09:47.154Z,0
2023-02-02T05:11:01.556Z,0
2023-02-02T05:12:15.891Z,0
2023-02-02T05:14:44.447Z,0
2023-02-02T05:15:58.852Z,0
2023-02-02T05:17:13.184Z,0
2023-02-02T05:18:27.461Z,0
2023-02-02T05:19:41.741Z,0
2023-02-02T05:20:56.142Z,0
2023-02-02T05:22:10.478Z,0
2023-02-02T05:23:24.751Z,0
2023-02-02T05:24:39.033Z,0
2023-02-02T05:25:53.450Z,0
2023-02-02T05:27:07.760Z,0
2023-02-02T05:28:22.042Z,0
2023-02-02T05:29:36.333Z,0
2023-02-02T05:30:50.726Z,0
2023-02-02T05:32:05.062Z,0
2023-02-02T05:33:19.344Z,0
2023-02-02T05:34:33.616Z,0
2023-02-02T05:35:47.966Z,1
2023-02-02T05:37:02.224Z,1
2023-02-02T05:38:16.440Z,1
2023-02-02T05:39:30.670Z,1
2023-02-02T05:40:44.970Z,1
2023-02-02T05:43:13.542Z,1
2023-02-02T05:44:26.936Z,0
2023-02-02T05:45:41.273Z,0
2023-02-02T05:46:55.675Z,0
2023-02-02T05:48:10.017Z,0
2023-02-02T05:49:23.429Z,0
2023-02-02T05:50:36.812Z,0
2023-02-02T05:51:51.149Z,0
2023-02-02T05:53:04.500Z,0
2023-02-02T05:54:18.783Z,0
2023-02-02T05:55:33.186Z,0
2023-02-02T05:56:47.504Z,0
2023-02-02T05:58:01.793Z,0
2023-02-02T05:59:16.078Z,0
2023-02-02T06:00:30.472Z,0
2023-02-02T06:01:44.799Z,0
2023-02-02T06:02:59.083Z,0
2023-02-02T06:04:13.369Z,0
2023-02-02T06:05:27.774Z,0
2023-02-02T06:06:42.087Z,0
2023-02-02T06:07:56.367Z,0
2023-02-02T06:09:10.657Z,0
2023-02-02T06:10:25.056Z,0
2023-02-02T06:11:39.385Z,0
2023-02-02T06:12:53.676Z,0
2023-02-02T06:14:07.945Z,0
2023-02-02T06:15:22.355Z,0
2023-02-02T06:16:36.683Z,0
2023-02-02T06:17:50.955Z,0
2023-02-02T06:19:05.235Z,0
2023-02-02T06:20:19.654Z,0
2023-02-02T06:21:33.971Z,0
2023-02-02T06:22:48.199Z,1
2023-02-02T06:24:02.485Z,1
2023-02-02T06:25:15.875Z,0
2023-02-02T06:26:30.215Z,0
2023-02-02T06:27:43.557Z,0
2023-02-02T06:28:57.797Z,1
2023-02-02T06:30:12.090Z,1
2023-02-02T06:31:26.347Z,1
2023-02-02T06:32:40.565Z,1
2023-02-02T06:33:54.796Z,1
2023-02-02T06:35:09.015Z,1
2023-02-02T06:36:23.323Z,1
2023-02-02T06:38:51.893Z,0
2023-02-02T06:40:06.176Z,0
2023-02-02T06:41:20.590Z,0
2023-02-02T06:42:34.902Z,0
2023-02-02T06:43:49.186Z,0
2023-02-02T06:45:03.417Z,2
2023-02-02T06:46:17.721Z,1
2023-02-02T06:47:31.972Z,1
2023-02-02T06:48:46.199Z,2
2023-02-02T06:50:00.419Z,3
2023-02-02T06:51:14.658Z,3
2023-02-02T06:52:28.948Z,2
2023-02-02T06:53:43.188Z,3
2023-02-02T06:54:57.428Z,3
2023-02-02T06:56:11.640Z,5
2023-02-02T06:57:25.878Z,10
2023-02-02T06:58:40.236Z,7
2023-02-02T06:59:54.514Z,16
2023-02-02T07:01:07.816Z,19
2023-02-02T07:03:36.331Z,25
2023-02-02T07:04:50.587Z,28
2023-02-02T07:06:04.801Z,27
2023-02-02T07:07:19.038Z,29
2023-02-02T07:08:33.257Z,28
2023-02-02T07:09:47.558Z,27
2023-02-02T07:11:01.805Z,36
2023-02-02T07:12:16.034Z,38
2023-02-02T07:13:30.244Z,44
2023-02-02T07:14:44.475Z,45
2023-02-02T07:15:58.787Z,47
2023-02-02T07:17:13.028Z,44
2023-02-02T07:18:27.240Z,52
2023-02-02T07:19:41.476Z,50
2023-02-02T07:20:55.703Z,49
2023-02-02T07:22:10.008Z,60
2023-02-02T07:23:24.240Z,66
2023-02-02T07:24:38.000Z,75
2023-02-02T07:25:52.696Z,84
2023-02-02T07:27:06.919Z,99
2023-02-02T07:28:21.226Z,110
2023-02-02T07:29:35.469Z,120
2023-02-02T07:30:49.689Z,115
2023-02-02T07:32:03.982Z,126
2023-02-02T07:33:17.311Z,130
2023-02-02T07:34:31.600Z,138
2023-02-02T07:35:44.897Z,135
2023-02-02T07:36:59.126Z,129
2023-02-02T07:38:13.422Z,153
2023-02-02T07:39:27.663Z,162
2023-02-02T07:40:41.878Z,169
2023-02-02T07:41:56.121Z,183
2023-02-02T07:43:10.331Z,184
2023-02-02T07:44:24.632Z,188
2023-02-02T07:45:38.873Z,198
2023-02-02T07:46:53.114Z,197
2023-02-02T07:48:07.328Z,221
2023-02-02T07:49:21.561Z,230
2023-02-02T07:50:35.853Z,247
2023-02-02T07:51:50.108Z,266
2023-02-02T07:53:04.333Z,290
2023-02-02T07:54:18.550Z,343
2023-02-02T07:55:32.780Z,360
2023-02-02T07:58:01.323Z,384
2023-02-02T07:59:15.543Z,401
2023-02-02T08:00:29.783Z,408
2023-02-02T08:01:44.007Z,406
2023-02-02T08:02:58.309Z,430
2023-02-02T08:04:12.548Z,435
2023-02-02T08:05:26.771Z,441
2023-02-02T08:06:41.064Z,452
2023-02-02T08:07:54.397Z,462
2023-02-02T08:09:08.685Z,455
2023-02-02T08:10:22.962Z,477
2023-02-02T08:11:37.263Z,476
2023-02-02T08:12:51.540Z,469
2023-02-02T08:14:05.831Z,493
2023-02-02T08:15:20.114Z,466
2023-02-02T08:16:33.486Z,505
2023-02-02T08:17:46.805Z,522
2023-02-02T08:19:01.082Z,522
2023-02-02T08:20:15.370Z,584
2023-02-02T08:21:28.737Z,604
2023-02-02T08:22:43.026Z,629
2023-02-02T08:23:57.314Z,590
2023-02-02T08:26:24.924Z,920
2023-02-02T08:27:39.229Z,672
2023-02-02T08:28:53.508Z,636
2023-02-02T08:30:07.806Z,849
2023-02-02T08:31:22.078Z,731
2023-02-02T08:33:49.618Z,700
2023-02-02T08:35:03.849Z,713
2023-02-02T08:36:18.076Z,711
2023-02-02T08:37:32.287Z,726
2023-02-02T08:40:00.845Z,840
2023-02-02T08:41:15.061Z,849
2023-02-02T08:42:29.300Z,807
2023-02-02T08:43:43.521Z,829
2023-02-02T08:44:57.818Z,911
2023-02-02T08:48:40.514Z,868
2023-02-02T08:49:54.742Z,963
2023-02-02T08:51:09.035Z,876
2023-02-02T08:52:23.290Z,930
2023-02-02T08:53:37.506Z,933
2023-02-02T08:54:51.737Z,924
2023-02-02T08:56:05.973Z,897
2023-02-02T08:57:20.272Z,884
2023-02-02T08:59:48.742Z,884
2023-02-02T09:02:17.184Z,862
2023-02-02T09:03:31.536Z,897
2023-02-02T09:04:45.831Z,948
2023-02-02T09:07:13.455Z,957
2023-02-02T09:08:27.737Z,1117
2023-02-02T09:09:42.023Z,1129
2023-02-02T09:12:10.600Z,895
2023-02-02T09:13:24.881Z,944
2023-02-02T09:14:39.181Z,1051
2023-02-02T09:17:07.744Z,1193
2023-02-02T09:18:22.027Z,1140
2023-02-02T09:19:35.381Z,1198
2023-02-02T09:23:18.000Z,1276
2023-02-02T09:24:31.561Z,1266
2023-02-02T09:25:45.844Z,1109
2023-02-02T09:27:00.135Z,1091
2023-02-02T09:29:28.699Z,1189
2023-02-02T09:30:43.005Z,1179
2023-02-02T09:31:57.283Z,1169
2023-02-02T09:34:25.853Z,1349
2023-02-02T09:35:39.220Z,1330
2023-02-02T09:38:07.777Z,1279
2023-02-02T09:41:49.694Z,1346
2023-02-02T09:43:03.977Z,1345
2023-02-02T09:44:18.270Z,1274
2023-02-02T09:45:32.543Z,1291
2023-02-02T09:46:46.849Z,1253
2023-02-02T09:48:01.126Z,1408
2023-02-02T09:49:15.416Z,1564
2023-02-02T09:51:43.976Z,1568
2023-02-02T09:52:58.280Z,1466
2023-02-02T09:54:12.574Z,1482
2023-02-02T09:56:40.203Z,1577
2023-02-02T09:57:54.498Z,1517
2023-02-02T09:59:08.779Z,1539
2023-02-02T10:00:22.134Z,1539
2023-02-02T10:02:49.757Z,1565
2023-02-02T10:04:04.048Z,1545
2023-02-02T10:05:18.314Z,1683
2023-02-02T10:06:32.608Z,1719
2023-02-02T10:07:46.912Z,1649
2023-02-02T10:10:15.481Z,1660
2023-02-02T10:11:29.749Z,1777
2023-02-02T10:13:57.384Z,1739
2023-02-02T10:15:10.745Z,1657
2023-02-02T10:16:24.073Z,1659
2023-02-02T10:17:38.367Z,1776
2023-02-02T10:18:52.641Z,1934
2023-02-02T10:20:06.922Z,1970
2023-02-02T10:21:20.280Z,2014
2023-02-02T10:22:34.576Z,1932
2023-02-02T10:25:02.182Z,1954
2023-02-02T10:26:16.477Z,1917
2023-02-02T10:27:30.774Z,1805
2023-02-02T10:28:45.042Z,1596
2023-02-02T10:29:59.343Z,1534
2023-02-02T10:31:13.627Z,1563
2023-02-02T10:32:27.927Z,1604
2023-02-02T10:33:42.191Z,1618
2023-02-02T10:34:56.487Z,1557
2023-02-02T10:37:24.146Z,1353
2023-02-02T10:41:06.999Z,1716
2023-02-02T10:42:20.340Z,1683
2023-02-02T10:43:34.625Z,1637
2023-02-02T10:44:47.957Z,1673
2023-02-02T10:47:16.535Z,1607
2023-02-02T10:48:30.832Z,1687
2023-02-02T10:49:45.201Z,1827
2023-02-02T10:52:13.645Z,1740
2023-02-02T10:53:27.944Z,1784
2023-02-02T10:54:42.199Z,1496
2023-02-02T10:55:56.418Z,1275
2023-02-02T10:57:10.642Z,1403
2023-02-02T10:59:39.171Z,1746
2023-02-02T11:00:53.412Z,1873
2023-02-02T11:02:07.647Z,1842
2023-02-02T11:03:21.855Z,1766
2023-02-02T11:04:36.101Z,1769
2023-02-02T11:07:04.645Z,1995
2023-02-02T11:08:18.870Z,1896
2023-02-02T11:09:33.098Z,1825
2023-02-02T11:10:47.305Z,1824
2023-02-02T11:12:01.615Z,1897
2023-02-02T11:13:15.856Z,1945
2023-02-02T11:15:44.310Z,1728
2023-02-02T11:16:58.530Z,1686
2023-02-02T11:18:12.842Z,1717
2023-02-02T11:19:27.082Z,1756
2023-02-02T11:20:41.359Z,1754
2023-02-02T11:21:54.693Z,1718
2023-02-02T11:23:08.988Z,1715
2023-02-02T11:24:23.274Z,1780
2023-02-02T11:25:36.625Z,1781
2023-02-02T11:26:49.964Z,1734
2023-02-02T11:28:04.243Z,1689
2023-02-02T11:29:18.529Z,1977
2023-02-02T11:30:31.821Z,2153
2023-02-02T11:31:46.120Z,2207
2023-02-02T11:33:00.380Z,2450
2023-02-02T11:34:14.589Z,2328
2023-02-02T11:35:28.814Z,2331
2023-02-02T11:36:43.046Z,2350
2023-02-02T11:37:57.345Z,2222
2023-02-02T11:39:11.602Z,2065
2023-02-02T11:40:25.817Z,2051
2023-02-02T11:41:40.039Z,1968
2023-02-02T11:42:54.272Z,1860
2023-02-02T11:45:22.805Z,1584
2023-02-02T11:46:37.046Z,1532
2023-02-02T11:47:51.268Z,1526
2023-02-02T11:49:05.490Z,1506
2023-02-02T11:50:19.799Z,1412
2023-02-02T11:51:34.031Z,1324
2023-02-02T11:52:48.255Z,1102
2023-02-02T11:54:02.495Z,956
2023-02-02T11:55:16.707Z,985
2023-02-02T11:56:31.018Z,940
2023-02-02T12:00:13.707Z,1571
2023-02-02T12:01:27.994Z,1595
2023-02-02T12:02:42.288Z,1669
2023-02-02T12:03:56.573Z,1574
2023-02-02T12:05:09.869Z,1626
2023-02-02T12:06:24.107Z,1574
2023-02-02T12:07:38.405Z,1520
2023-02-02T12:08:52.637Z,1388
2023-02-02T12:10:06.862Z,1342
2023-02-02T12:11:21.094Z,1431
2023-02-02T12:12:35.330Z,1534
2023-02-02T12:13:49.631Z,1440
2023-02-02T12:15:03.871Z,1442
2023-02-02T12:16:18.088Z,1472
2023-02-02T12:18:46.542Z,1441
2023-02-02T12:20:00.845Z,1401
2023-02-02T12:21:15.084Z,1412
2023-02-02T12:22:29.311Z,1347
2023-02-02T12:23:43.549Z,1585
2023-02-02T12:26:12.070Z,1481
2023-02-02T12:27:26.304Z,1005
2023-02-02T12:28:40.539Z,1108
2023-02-02T12:29:54.753Z,1476
2023-02-02T12:31:08.993Z,1573
2023-02-02T12:32:23.286Z,1418
2023-02-02T12:33:37.528Z,1219
2023-02-02T12:34:51.754Z,1504
2023-02-02T12:36:06.051Z,1553
2023-02-02T12:37:19.409Z,1521
2023-02-02T12:38:33.694Z,1494
2023-02-02T12:39:47.025Z,1469
2023-02-02T12:41:01.309Z,1443
2023-02-02T12:42:15.601Z,1449
2023-02-02T12:43:29.888Z,1598
2023-02-02T12:44:44.173Z,1489
2023-02-02T12:45:57.477Z,1442
2023-02-02T12:47:11.776Z,1487
2023-02-02T12:48:26.014Z,1439
2023-02-02T12:50:54.461Z,1488
2023-02-02T12:52:08.685Z,1515
2023-02-02T12:53:22.985Z,1468
2023-02-02T12:54:37.241Z,1608
2023-02-02T12:55:51.460Z,1430
2023-02-02T12:57:05.689Z,1305
2023-02-02T12:58:19.920Z,1344
2023-02-02T12:59:34.202Z,1397
2023-02-02T13:00:48.443Z,1574
2023-02-02T13:02:02.677Z,1548
2023-02-02T13:03:16.902Z,1207
2023-02-02T13:04:31.133Z,1116
2023-02-02T13:05:45.443Z,1130
2023-02-02T13:06:59.676Z,1446
2023-02-02T13:08:13.922Z,1661
2023-02-02T13:09:28.126Z,1420
2023-02-02T13:10:42.346Z,1372
2023-02-02T13:11:56.664Z,1382
2023-02-02T13:13:10.895Z,1292
2023-02-02T13:14:25.131Z,1230
2023-02-02T13:15:39.353Z,1276
2023-02-02T13:16:53.632Z,1410
2023-02-02T13:18:07.932Z,1388
2023-02-02T13:19:22.215Z,1388
2023-02-02T13:20:36.508Z,1340
2023-02-02T13:21:49.826Z,1329
2023-02-02T13:23:04.130Z,1242
2023-02-02T13:24:18.410Z,1135
2023-02-02T13:25:31.705Z,1123
2023-02-02T13:26:45.938Z,1133
2023-02-02T13:28:00.251Z,1201
2023-02-02T13:29:14.477Z,1280
2023-02-02T13:30:28.718Z,1221
2023-02-02T13:31:42.928Z,1170
2023-02-02T13:32:57.169Z,1200
2023-02-02T13:34:11.457Z,1177
2023-02-02T13:35:25.702Z,1141
2023-02-02T13:37:54.166Z,1090
2023-02-02T13:39:08.376Z,1062
2023-02-02T13:40:22.689Z,933
2023-02-02T13:41:36.932Z,835
2023-02-02T13:42:51.164Z,817
2023-02-02T13:45:19.603Z,887
2023-02-02T13:46:33.912Z,888
2023-02-02T13:49:02.366Z,1026
2023-02-02T13:50:16.593Z,1086
2023-02-02T13:51:30.835Z,1096
2023-02-02T13:52:45.127Z,997
2023-02-02T13:53:59.367Z,927
2023-02-02T13:55:13.594Z,1026
2023-02-02T13:56:27.880Z,946
2023-02-02T13:57:41.222Z,959
2023-02-02T13:58:55.495Z,967
2023-02-02T14:00:09.781Z,797
2023-02-02T14:01:24.072Z,765
2023-02-02T14:02:38.346Z,756
2023-02-02T14:03:52.653Z,829
2023-02-02T14:05:06.934Z,847
2023-02-02T14:07:34.562Z,909
2023-02-02T14:08:48.869Z,810
2023-02-02T14:10:03.148Z,699
2023-02-02T14:12:30.685Z,745
2023-02-02T14:13:44.984Z,729
2023-02-02T14:14:59.222Z,742
2023-02-02T14:16:13.446Z,778
2023-02-02T14:17:27.671Z,771
2023-02-02T14:18:41.900Z,739
2023-02-02T14:19:56.189Z,742
2023-02-02T14:22:24.658Z,876
2023-02-02T14:23:38.898Z,988
2023-02-02T14:26:07.416Z,897
2023-02-02T14:27:21.664Z,948
2023-02-02T14:29:50.108Z,669
2023-02-02T14:31:04.343Z,624
2023-02-02T14:32:18.640Z,544
2023-02-02T14:33:32.880Z,472
2023-02-02T14:34:47.117Z,496
2023-02-02T14:36:01.330Z,530
2023-02-02T14:37:15.565Z,521
2023-02-02T14:38:29.870Z,581
2023-02-02T14:39:44.100Z,566
2023-02-02T14:40:58.326Z,457
2023-02-02T14:42:12.620Z,458
2023-02-02T14:43:25.956Z,528
2023-02-02T14:44:40.239Z,606
2023-02-02T14:45:54.528Z,667
2023-02-02T14:47:08.798Z,722
2023-02-02T14:48:23.090Z,743
2023-02-02T14:49:37.378Z,772
2023-02-02T14:50:51.672Z,705
2023-02-02T14:52:04.958Z,652
2023-02-02T14:53:19.199Z,586
2023-02-02T14:54:33.487Z,644
2023-02-02T14:55:47.725Z,580
2023-02-02T14:57:01.955Z,470
2023-02-02T14:58:16.191Z,444
2023-02-02T14:59:30.410Z,453
2023-02-02T15:00:44.720Z,453
2023-02-02T15:01:58.961Z,470
2023-02-02T15:03:13.190Z,531
2023-02-02T15:04:27.407Z,585
2023-02-02T15:05:41.642Z,599
2023-02-02T15:06:55.932Z,578
2023-02-02T15:09:24.406Z,507
2023-02-02T15:10:38.631Z,415
2023-02-02T15:11:52.854Z,382
2023-02-02T15:14:21.401Z,505
2023-02-02T15:15:35.620Z,491
2023-02-02T15:16:49.853Z,407
2023-02-02T15:18:04.071Z,417
2023-02-02T15:19:18.373Z,461
2023-02-02T15:20:32.619Z,367
2023-02-02T15:21:46.847Z,306
2023-02-02T15:23:01.124Z,309
2023-02-02T15:24:14.470Z,333
2023-02-02T15:25:28.743Z,358
2023-02-02T15:26:43.041Z,348
2023-02-02T15:27:57.325Z,353
2023-02-02T15:29:11.601Z,344
2023-02-02T15:30:25.892Z,326
2023-02-02T15:31:40.179Z,310
2023-02-02T15:34:07.711Z,287
2023-02-02T15:35:21.997Z,256
2023-02-02T15:37:50.467Z,207
2023-02-02T15:39:04.696Z,184
2023-02-02T15:40:18.919Z,180
2023-02-02T15:41:33.237Z,155
2023-02-02T15:42:47.480Z,164
2023-02-02T15:44:01.706Z,135
2023-02-02T15:45:15.920Z,129
2023-02-02T15:47:44.457Z,128
2023-02-02T15:48:58.698Z,145
2023-02-02T15:50:12.916Z,132
2023-02-02T15:51:27.144Z,130
2023-02-02T15:52:41.370Z,110
2023-02-02T15:53:55.675Z,102
2023-02-02T15:55:09.912Z,125
2023-02-02T15:56:24.133Z,106
2023-02-02T15:57:38.365Z,96
2023-02-02T15:58:52.599Z,96
2023-02-02T16:00:06.898Z,97
2023-02-02T16:01:21.137Z,95
2023-02-02T16:02:35.357Z,81
2023-02-02T16:03:49.655Z,80
2023-02-02T16:05:02.976Z,79
2023-02-02T16:06:17.255Z,73
2023-02-02T16:07:31.545Z,66
2023-02-02T16:08:45.824Z,61
2023-02-02T16:09:59.123Z,61
2023-02-02T16:11:13.380Z,67
2023-02-02T16:12:27.600Z,60
2023-02-02T16:13:41.815Z,50
2023-02-02T16:14:56.050Z,50
2023-02-02T16:16:10.343Z,46
2023-02-02T16:17:24.596Z,37
2023-02-02T16:18:38.827Z,33
2023-02-02T16:19:53.053Z,25
2023-02-02T16:21:07.271Z,27
2023-02-02T16:22:21.579Z,23
2023-02-02T16:23:35.815Z,22
2023-02-02T16:24:50.041Z,20
2023-02-02T16:26:04.260Z,17
2023-02-02T16:27:18.491Z,12
2023-02-02T16:28:32.788Z,13
2023-02-02T16:31:01.268Z,11
2023-02-02T16:32:15.495Z,9
2023-02-02T16:33:29.725Z,4
2023-02-02T16:34:44.024Z,3
2023-02-02T16:35:58.259Z,4
2023-02-02T16:37:12.489Z,3
2023-02-02T16:38:26.710Z,2
2023-02-02T16:39:40.941Z,2
2023-02-02T16:40:55.303Z,1
2023-02-02T16:42:09.583Z,1
2023-02-02T16:43:22.961Z,0
2023-02-02T16:44:37.264Z,2
2023-02-02T16:45:51.623Z,0
2023-02-02T16:47:05.962Z,0
2023-02-02T16:48:19.354Z,0
2023-02-02T16:49:33.683Z,0
2023-02-02T16:52:02.320Z,1
2023-02-02T16:53:16.604Z,1
2023-02-02T16:54:30.893Z,1
2023-02-02T16:55:45.169Z,1
2023-02-02T16:56:59.475Z,1
2023-02-02T16:58:13.762Z,1
2023-02-02T16:59:28.050Z,1
2023-02-02T17:00:42.335Z,1
2023-02-02T17:01:56.606Z,1
2023-02-02T17:03:10.900Z,1
2023-02-02T17:04:25.190Z,1
2023-02-02T17:05:38.520Z,1
2023-02-02T17:06:51.823Z,1
2023-02-02T17:08:06.135Z,0
2023-02-02T17:09:20.400Z,0
2023-02-02T17:10:34.654Z,1
2023-02-02T17:11:48.998Z,0
2023-02-02T17:13:03.270Z,1
2023-02-02T17:14:17.513Z,1
2023-02-02T17:15:31.743Z,1
2023-02-02T17:16:45.964Z,1
2023-02-02T17:18:00.266Z,1
2023-02-02T17:19:14.562Z,0
2023-02-02T17:20:28.801Z,1
2023-02-02T17:21:43.015Z,1
2023-02-02T17:22:57.299Z,0
2023-02-02T17:24:11.711Z,0
2023-02-02T17:25:25.941Z,1
2023-02-02T17:26:40.188Z,1
2023-02-02T17:27:54.472Z,0
2023-02-02T17:29:08.703Z,1
2023-02-02T17:30:23.062Z,0
2023-02-02T17:31:37.362Z,0
2023-02-02T17:32:51.638Z,0
2023-02-02T17:34:05.906Z,0
2023-02-02T17:35:20.317Z,0
2023-02-02T17:37:48.936Z,0
2023-02-02T17:39:02.321Z,0
2023-02-02T17:40:16.696Z,1
2023-02-02T17:42:45.326Z,1
2023-02-02T17:43:59.621Z,1
2023-02-02T17:45:12.993Z,1
2023-02-02T17:46:27.271Z,1
2023-02-02T17:47:40.631Z,1
2023-02-02T17:48:53.930Z,1
2023-02-02T17:50:08.175Z,1
2023-02-02T17:51:22.391Z,1
2023-02-02T17:52:36.627Z,1
2023-02-02T17:53:50.857Z,1
2023-02-02T17:55:05.155Z,1
2023-02-02T17:56:19.394Z,1
2023-02-02T17:57:33.608Z,1
2023-02-02T17:58:47.853Z,1
2023-02-02T18:00:02.073Z,1
2023-02-02T18:01:16.369Z,1
2023-02-02T18:02:30.619Z,1
2023-02-02T18:03:44.836Z,1
2023-02-02T18:04:59.058Z,1
2023-02-02T18:06:13.298Z,1
2023-02-02T18:07:27.654Z,1
2023-02-02T18:08:41.891Z,1
2023-02-02T18:09:56.109Z,1
2023-02-02T18:11:10.340Z,1
2023-02-02T18:12:24.563Z,1
2023-02-02T18:13:38.928Z,1
2023-02-02T18:14:53.218Z,0
2023-02-02T18:16:07.438Z,1
2023-02-02T18:17:21.680Z,1
2023-02-02T18:18:35.965Z,0
2023-02-02T18:19:50.430Z,0
2023-02-02T18:21:04.769Z,0
2023-02-02T18:22:19.112Z,0
2023-02-02T18:23:32.453Z,1
2023-02-02T18:24:46.799Z,0
2023-02-02T18:26:01.142Z,0
2023-02-02T18:27:15.467Z,0
2023-02-02T18:28:29.818Z,0
2023-02-02T18:29:43.226Z,0
2023-02-02T18:32:11.901Z,0
2023-02-02T18:33:25.287Z,0
2023-02-02T18:34:39.590Z,1
2023-02-02T18:35:53.927Z,0
2023-02-02T18:37:08.268Z,0
2023-02-02T18:38:22.606Z,0
2023-02-02T18:39:36.908Z,1
2023-02-02T18:40:51.190Z,1
2023-02-02T18:42:05.482Z,1
2023-02-02T18:43:19.817Z,0
2023-02-02T18:44:33.221Z,0
2023-02-02T18:45:47.626Z,0
2023-02-02T18:47:01.981Z,0
2023-02-02T18:49:29.701Z,0
2023-02-02T18:50:44.104Z,0
2023-02-02T18:51:58.402Z,1
2023-02-02T18:53:12.672Z,1
2023-02-02T18:54:26.957Z,1
2023-02-02T18:55:41.254Z,1
2023-02-02T18:56:55.617Z,0
2023-02-02T18:58:09.952Z,0
2023-02-02T18:59:23.292Z,0
2023-02-02T19:00:37.573Z,0
2023-02-02T19:01:51.942Z,1
2023-02-02T19:03:06.245Z,0
2023-02-02T19:04:20.524Z,0